METAR Data
IDs: Format: Raw Decoded Include TAF

Data at: 0736 UTC 23 Feb 2019

PABV 230656Z AUTO 17003KT 10SM CLR M16/M18 A3039 RMK AO2 SLP301 T11561183 FZRANO
PABV 230556Z AUTO 14003KT 10SM CLR M14/M17 A3038 RMK AO2 SLP296 T11441167 11044 21144 51009 FZRANO
PABV 230456Z AUTO 12003KT 10SM CLR M13/M17 A3038 RMK AO2 SLP297 T11331167 FZRANO
PABV 230356Z AUTO 18003KT 10SM CLR M13/M17 A3036 RMK AO2 SLP291 T11331172 FZRANO
PABV 230256Z AUTO 16003KT 10SM CLR M09/M14 A3035 RMK AO2 SLP287 T10891139 51007 FZRANO
PABV 230156Z AUTO 24004KT 10SM CLR M05/M12 A3035 RMK AO2 SLP285 T10501117 FZRANO
PABV 230056Z AUTO 23003KT 10SM CLR M05/M11 A3034 RMK AO2 SLP282 T10501111 FZRANO
PABV 222356Z AUTO 23004KT 10SM CLR M04/M11 A3033 RMK AO2 SLP279 60000 T10441111 11044 21172 51012 FZRANO
PABV 222256Z AUTO 25005KT 10SM CLR M06/M09 A3032 RMK AO2 SLP277 T10561089 FZRANO
PABV 222156Z AUTO VRB03KT 10SM CLR M06/M08 A3031 RMK AO2 SLP274 T10611083 FZRANO
PABV 222056Z AUTO 25003KT 10SM CLR M08/M09 A3029 RMK AO2 SLP267 60000 T10781094 53010 FZRANO
PABV 221956Z AUTO 00000KT 10SM CLR M10/M11 A3028 RMK AO2 SNE08 SLP262 P0000 T11001111 FZRANO
PABV 221903Z AUTO 20005KT 9SM -SN CLR M14/M16 A3027 RMK AO2 P0000 FZRANO
PABV 221856Z AUTO 19007KT 1 3/4SM -SN BR CLR M16/M17 A3026 RMK AO2 SNB48 SLP257 P0000 T11611172 FZRANO
PABV 221756Z AUTO 17003KT 10SM CLR M17/M19 A3024 RMK AO2 SLP251 60000 T11721189 11144 21172 53014 FZRANO
PABV 221721Z AUTO 15004KT 8SM SCT001 M17/M19 A3024 RMK AO2 FZRANO
PABV 221656Z AUTO 14005KT 10SM OVC001 M14/M17 A3023 RMK AO2 SNE08B26E39 SLP246 P0000 T11441167 FZRANO
PABV 221638Z AUTO 17005KT 3SM -SN BR OVC001 M15/M17 A3023 RMK AO2 SNE08B26 P0000 FZRANO
PABV 221625Z AUTO 16005KT 1 3/4SM BR OVC001 M16/M17 A3022 RMK AO2 VIS 1 1/4V4 SNE08 P0000 FZRANO
PABV 221605Z AUTO 18004KT 3SM -SN BR BKN001 M16/M18 A3021 RMK AO2 P0000 FZRANO
PABV 221556Z AUTO 18004KT 1 1/2SM -SN BR BKN001 M17/M19 A3020 RMK AO2 VIS 3/4V5 SNB50 SLP237 P0000 T11721189 FZRANO
PABV 221554Z AUTO 19003KT 2SM -SN BR BKN001 M17/M19 A3020 RMK AO2 VIS 3/4V5 SNB50 P0000 FZRANO
PABV 221551Z AUTO 19004KT 4SM -SN BR SCT001 M17/M19 A3020 RMK AO2 SNB50 P0000 FZRANO
PABV 221510Z AUTO 14003KT 10SM BKN001 M17/M18 A3019 RMK AO2 FZRANO
PABV 221503Z AUTO 00000KT 2SM BR BKN001 M17/M19 A3019 RMK AO2 FZRANO
PABV 221456Z AUTO 16003KT 1 1/4SM BR SCT001 M17/M19 A3019 RMK AO2 VIS 1/2V5 SLP232 T11721194 53015 FZRANO
PABV 221453Z AUTO 15003KT 2 1/2SM BR FEW001 M17/M19 A3019 RMK AO2 VIS 1/2V5 FZRANO
PABV 221356Z AUTO 15004KT 10SM CLR M16/M18 A3016 RMK AO2 SLP223 T11611178 FZRANO
PABV 221256Z AUTO 00000KT 10SM CLR M16/M17 A3015 RMK AO2 SLP219 T11561172 FZRANO
PABV 221156Z AUTO 16004KT 10SM CLR M15/M17 A3014 RMK AO2 SLP217 T11501167 11056 21150 51023 FZRANO
PABV 221056Z AUTO 19003KT 10SM CLR M13/M15 A3012 RMK AO2 SLP210 T11331150 FZRANO
PABV 220956Z AUTO 22004KT 10SM CLR M13/M15 A3010 RMK AO2 SLP203 T11281150 FZRANO
PABV 220856Z AUTO 00000KT 10SM CLR M07/M11 A3008 RMK AO2 SLP194 T10721106 410111117 51022 FZRANO
PABV 220756Z AUTO 19005KT 10SM FEW037 M07/M09 A3006 RMK AO2 SLP188 T10671094 FZRANO
PABV 220656Z AUTO 20009KT 10SM CLR M07/M08 A3004 RMK AO2 SLP181 T10721083 FZRANO
PABV 220556Z AUTO 19003KT 10SM CLR M11/M13 A3001 RMK AO2 SLP172 T11111128 11011 21111 53020 FZRANO
PABV 220456Z AUTO 00000KT 10SM CLR M10/M12 A2998 RMK AO2 SLP162 T11001117 FZRANO
PABV 220356Z AUTO 14004KT 10SM CLR M08/M11 A2997 RMK AO2 SLP158 T10831111 FZRANO
PABV 220256Z AUTO 00000KT 10SM CLR M06/M10 A2995 RMK AO2 SLP152 T10561100 51014 FZRANO
PABV 220156Z AUTO 00000KT 10SM CLR M03/M08 A2994 RMK AO2 SLP148 T10331083 FZRANO
PABV 220056Z AUTO 26005KT 10SM SCT060 SCT100 M02/M08 A2992 RMK AO2 SLP142 T10171083 FZRANO
PABV 212356Z AUTO 00000KT 10SM FEW080 BKN100 M02/M08 A2991 RMK AO2 SLP137 T10171083 11011 21100 51010 FZRANO
PABV 212256Z AUTO 24005KT 10SM CLR M03/M09 A2991 RMK AO2 SLP136 T10331094 FZRANO
PABV 212156Z AUTO 23007KT 10SM CLR M04/M10 A2989 RMK AO2 SLP132 T10441100 FZRANO
PABV 212056Z AUTO 23006KT 10SM CLR M06/M11 A2988 RMK AO2 SLP127 T10561106 53029 FZRANO
PABV 211956Z AUTO 18005KT 10SM CLR M08/M09 A2985 RMK AO2 SLP115 T10781094 FZRANO